Time;durP1;ratioP1;P1;durP2;ratioP2;P2;SDS_P1;SDS_P2;PMS_P1;PMS_P2;Temp;Humidity;BMP_temperature;BMP_pressure;BME280_temperature;BME280_humidity;BME280_pressure;Samples;Min_cycle;Max_cycle;Signal;HPM_P1;HPM_P2
2023/07/27 00:00:55;;;;;;;6.33;3.20;;;14.60;99.90;;;;;;5066518;28;20185;-65
2023/07/27 00:03:20;;;;;;;4.07;3.67;;;14.40;99.90;;;;;;5054627;28;20200;-65
2023/07/27 00:05:46;;;;;;;3.47;3.17;;;14.30;99.90;;;;;;5049989;28;20200;-64
2023/07/27 00:08:11;;;;;;;6.30;2.80;;;14.50;99.90;;;;;;5069003;28;20208;-64
2023/07/27 00:10:37;;;;;;;3.20;2.90;;;14.80;99.90;;;;;;5050965;28;20212;-65
2023/07/27 00:13:03;;;;;;;3.50;3.20;;;14.50;99.90;;;;;;5062536;28;20185;-64
2023/07/27 00:15:28;;;;;;;3.60;3.30;;;14.70;99.90;;;;;;5068369;28;20197;-64
2023/07/27 00:17:55;;;;;;;3.77;3.47;;;14.60;99.90;;;;;;5067025;28;20278;-65
2023/07/27 00:20:20;;;;;;;3.75;3.45;;;14.60;99.90;;;;;;5048389;28;20539;-66
2023/07/27 00:22:46;;;;;;;3.90;2.90;;;14.90;99.90;;;;;;5067917;28;20195;-66
2023/07/27 00:25:12;;;;;;;3.70;3.40;;;14.70;99.90;;;;;;5069780;28;20297;-65
2023/07/27 00:27:37;;;;;;;4.37;3.47;;;14.70;99.90;;;;;;5068685;28;20283;-65
2023/07/27 00:30:03;;;;;;;3.73;3.43;;;14.70;99.90;;;;;;5070334;28;20493;-66
2023/07/27 00:32:29;;;;;;;3.80;3.38;;;15.00;99.90;;;;;;5064815;28;20201;-66
2023/07/27 00:34:55;;;;;;;3.77;3.27;;;14.80;99.90;;;;;;5054175;28;20339;-66
2023/07/27 00:37:20;;;;;;;4.47;3.70;;;14.90;99.90;;;;;;5061317;28;20181;-66
2023/07/27 00:39:46;;;;;;;3.17;2.87;;;15.00;99.90;;;;;;5061208;28;20185;-66
2023/07/27 00:42:11;;;;;;;3.37;3.13;;;15.00;99.90;;;;;;5062658;28;20641;-66
2023/07/27 00:44:37;;;;;;;4.10;3.17;;;15.00;99.90;;;;;;5048478;28;20635;-66
2023/07/27 00:47:03;;;;;;;4.40;3.10;;;15.40;99.90;;;;;;5066285;28;20220;-66
2023/07/27 00:49:30;;;;;;;3.35;3.05;;;15.30;99.90;;;;;;5064865;28;20185;-65
2023/07/27 00:51:56;;;;;;;4.15;3.42;;;15.40;99.90;;;;;;5073088;28;20180;-66
2023/07/27 00:54:22;;;;;;;3.30;3.00;;;15.30;99.90;;;;;;5064478;28;20217;-66
2023/07/27 00:56:49;;;;;;;3.00;2.70;;;15.30;99.90;;;;;;5068779;28;20712;-66
2023/07/27 00:59:15;;;;;;;3.80;3.40;;;15.40;99.90;;;;;;5068183;28;20690;-66
2023/07/27 01:01:41;;;;;;;3.03;2.83;;;15.30;99.90;;;;;;5077832;28;20538;-66
2023/07/27 01:04:07;;;;;;;5.70;3.20;;;15.40;99.90;;;;;;5073535;28;20204;-64
2023/07/27 01:06:33;;;;;;;3.38;3.08;;;15.40;99.90;;;;;;5075595;28;20319;-64
2023/07/27 01:08:59;;;;;;;3.20;2.90;;;15.50;99.90;;;;;;5070308;28;20552;-65
2023/07/27 01:11:51;;;;;;;3.53;3.10;;;15.40;99.90;;;;;;5070640;28;20186;-65
2023/07/27 01:14:36;;;;;;;3.72;3.05;;;15.30;99.90;;;;;;5051407;28;20307;-65
2023/07/27 01:17:08;;;;;;;3.78;3.05;;;15.40;99.90;;;;;;5054134;28;20181;-65
2023/07/27 01:19:46;;;;;;;3.40;2.85;;;15.50;99.90;;;;;;5068335;28;20177;-65
2023/07/27 01:22:24;;;;;;;3.38;2.88;;;15.60;99.90;;;;;;5075034;28;20193;-66
2023/07/27 01:25:11;;;;;;;3.40;3.10;;;15.30;99.90;;;;;;5070821;28;20208;-66
2023/07/27 01:27:46;;;;;;;3.83;3.00;;;15.40;99.90;;;;;;5075466;28;20689;-66
2023/07/27 01:30:17;;;;;;;3.65;3.35;;;15.40;99.90;;;;;;5073701;28;20249;-64
2023/07/27 01:32:45;;;;;;;3.42;2.72;;;15.60;99.90;;;;;;5080267;28;20657;-65
2023/07/27 01:35:16;;;;;;;2.63;2.42;;;15.50;99.90;;;;;;5071100;28;20213;-65
2023/07/27 01:37:44;;;;;;;3.33;2.72;;;15.10;99.90;;;;;;5067905;28;21190;-66
2023/07/27 01:40:13;;;;;;;2.92;2.67;;;15.50;99.90;;;;;;5072628;28;20239;-66
2023/07/27 01:42:40;;;;;;;3.20;3.00;;;15.50;99.90;;;;;;5072885;28;20706;-65
2023/07/27 01:45:07;;;;;;;3.10;2.70;;;15.70;99.90;;;;;;5072626;28;20217;-66
2023/07/27 01:47:33;;;;;;;3.60;2.60;;;15.40;99.90;;;;;;5072963;28;20213;-65
2023/07/27 01:49:59;;;;;;;3.47;2.60;;;15.60;99.90;;;;;;5071442;28;20279;-64
2023/07/27 01:52:26;;;;;;;4.43;2.70;;;15.70;99.90;;;;;;5069889;28;20192;-65
2023/07/27 01:54:55;;;;;;;2.83;2.63;;;15.40;99.90;;;;;;5055654;28;20204;-66
2023/07/27 01:57:21;;;;;;;3.08;2.88;;;15.50;99.90;;;;;;5056829;28;20280;-66
2023/07/27 01:59:47;;;;;;;2.53;2.33;;;15.60;99.90;;;;;;5074035;28;20268;-65
2023/07/27 02:02:14;;;;;;;3.00;2.70;;;15.50;99.90;;;;;;5072692;28;20286;-65
2023/07/27 02:04:40;;;;;;;3.25;2.63;;;15.50;99.90;;;;;;5058194;28;20231;-65
2023/07/27 02:07:05;;;;;;;2.50;2.30;;;15.50;99.90;;;;;;5046582;28;20208;-65
2023/07/27 02:09:31;;;;;;;2.70;2.50;;;15.30;99.90;;;;;;5073983;28;20588;-65
2023/07/27 02:12:05;;;;;;;2.70;2.30;;;15.60;99.90;;;;;;5076898;28;20185;-66
2023/07/27 02:14:45;;;;;;;2.83;2.50;;;15.70;99.90;;;;;;5068294;28;20259;-66
2023/07/27 02:17:23;;;;;;;3.40;3.10;;;15.70;99.90;;;;;;5075270;28;20188;-65
2023/07/27 02:19:55;;;;;;;2.83;2.63;;;15.30;99.90;;;;;;5068734;28;20658;-66
2023/07/27 02:22:23;;;;;;;3.38;2.40;;;15.70;99.90;;;;;;5066646;28;20180;-65
2023/07/27 02:24:49;;;;;;;3.05;2.67;;;15.40;99.90;;;;;;5069438;28;20205;-64
2023/07/27 02:27:14;;;;;;;2.97;2.60;;;15.80;99.90;;;;;;5077437;28;20257;-64
2023/07/27 02:29:40;;;;;;;4.00;2.97;;;15.70;99.90;;;;;;5051219;28;20733;-64
2023/07/27 02:32:06;;;;;;;2.93;2.43;;;15.70;99.90;;;;;;5075421;28;20200;-65
2023/07/27 02:34:32;;;;;;;2.50;2.30;;;15.50;99.90;;;;;;5076882;28;20508;-65
2023/07/27 02:36:57;;;;;;;2.30;2.10;;;15.50;99.90;;;;;;5054391;28;20972;-65
2023/07/27 02:39:23;;;;;;;4.67;2.53;;;15.50;99.90;;;;;;5070489;28;20550;-65
2023/07/27 02:41:48;;;;;;;2.90;2.60;;;15.80;99.90;;;;;;5073174;28;20196;-65
2023/07/27 02:44:14;;;;;;;3.00;2.60;;;15.60;99.90;;;;;;5080764;28;20250;-64
2023/07/27 02:46:40;;;;;;;2.47;2.27;;;15.70;99.90;;;;;;5083232;22;20225;-87
2023/07/27 02:49:05;;;;;;;2.50;2.10;;;15.80;99.90;;;;;;5049415;28;20224;-87
2023/07/27 02:51:31;;;;;;;2.90;2.70;;;15.50;99.90;;;;;;5034167;28;20520;-87
2023/07/27 02:53:56;;;;;;;5.70;2.23;;;15.60;99.90;;;;;;5030616;28;20221;-87
2023/07/27 02:56:22;;;;;;;2.93;2.50;;;15.90;99.90;;;;;;5024718;28;20289;-87
2023/07/27 02:58:47;;;;;;;2.70;2.40;;;16.00;99.90;;;;;;5012317;28;20611;-87
2023/07/27 03:01:13;;;;;;;2.57;2.37;;;15.90;99.90;;;;;;5010362;28;20178;-87
2023/07/27 03:03:38;;;;;;;3.47;2.30;;;16.10;99.90;;;;;;5010623;28;20189;-87
2023/07/27 03:06:04;;;;;;;4.17;2.70;;;15.80;99.90;;;;;;5007819;28;20655;-87
2023/07/27 03:08:30;;;;;;;3.50;3.20;;;16.10;99.90;;;;;;5009220;28;20675;-87
2023/07/27 03:11:04;;;;;;;3.15;2.85;;;15.80;99.90;;;;;;5014090;28;20605;-87
2023/07/27 03:13:30;;;;;;;2.80;2.60;;;16.00;99.90;;;;;;5026626;28;20188;-87
2023/07/27 03:15:56;;;;;;;2.40;2.20;;;16.00;99.90;;;;;;5011834;28;20198;-87
2023/07/27 03:18:22;;;;;;;3.00;2.60;;;16.10;99.90;;;;;;5011244;28;20195;-87
2023/07/27 03:20:48;;;;;;;2.53;2.33;;;16.00;99.90;;;;;;5010733;28;20202;-87
2023/07/27 03:23:13;;;;;;;2.63;2.33;;;16.20;99.90;;;;;;5015760;28;20433;-87
2023/07/27 03:25:39;;;;;;;2.90;2.20;;;16.30;99.90;;;;;;5015885;28;20496;-87
2023/07/27 03:28:06;;;;;;;3.73;2.47;;;15.40;99.90;;;;;;5018392;28;20214;-87
2023/07/27 03:30:33;;;;;;;4.35;2.58;;;15.70;99.90;;;;;;5009629;28;20188;-87
2023/07/27 03:32:59;;;;;;;6.45;2.72;;;15.80;99.90;;;;;;5011273;28;20182;-87
2023/07/27 03:35:24;;;;;;;3.97;2.93;;;15.90;99.90;;;;;;5011528;28;20673;-87
2023/07/27 03:37:51;;;;;;;2.73;2.43;;;16.10;99.90;;;;;;5011478;28;20183;-87
2023/07/27 03:40:17;;;;;;;3.05;2.75;;;15.70;99.90;;;;;;5006667;28;20190;-87
2023/07/27 03:42:43;;;;;;;2.40;2.20;;;16.00;99.90;;;;;;5002710;28;20196;-87
2023/07/27 03:45:09;;;;;;;2.60;2.37;;;16.20;99.90;;;;;;5004736;28;20274;-87
2023/07/27 03:47:34;;;;;;;2.50;2.30;;;16.00;99.90;;;;;;5027429;28;20694;-87
2023/07/27 03:50:00;;;;;;;3.17;2.97;;;16.20;99.90;;;;;;5009668;28;20441;-87
2023/07/27 03:52:25;;;;;;;3.10;2.23;;;15.90;99.90;;;;;;5009569;28;20193;-87
2023/07/27 03:54:51;;;;;;;4.70;2.77;;;16.00;99.90;;;;;;5009934;28;20175;-88
2023/07/27 03:57:16;;;;;;;2.70;2.50;;;16.30;99.90;;;;;;5041239;28;20213;-88
2023/07/27 03:59:42;;;;;;;3.17;2.40;;;15.90;99.90;;;;;;5007323;28;20194;-88
2023/07/27 04:02:07;;;;;;;3.13;2.60;;;15.80;99.90;;;;;;5024556;28;20651;-88
2023/07/27 04:04:33;;;;;;;2.63;2.43;;;16.30;99.90;;;;;;5011364;28;20187;-88
2023/07/27 04:06:59;;;;;;;3.23;2.73;;;16.10;99.90;;;;;;5007089;28;20248;-87
2023/07/27 04:09:24;;;;;;;3.73;2.73;;;16.20;99.90;;;;;;5008893;28;20184;-87
2023/07/27 04:11:50;;;;;;;4.27;3.10;;;16.10;99.90;;;;;;5008914;28;20170;-88
2023/07/27 04:14:15;;;;;;;3.17;2.57;;;16.50;99.90;;;;;;5011160;28;20179;-88
2023/07/27 04:16:41;;;;;;;2.60;2.40;;;16.30;99.90;;;;;;5005001;28;20224;-88
2023/07/27 04:19:06;;;;;;;3.27;3.00;;;17.20;99.90;;;;;;5008787;28;20189;-88
2023/07/27 04:21:32;;;;;;;4.10;3.20;;;15.80;99.90;;;;;;5007395;28;20662;-88
2023/07/27 04:23:57;;;;;;;2.73;2.33;;;16.30;99.90;;;;;;5012049;28;20292;-88
2023/07/27 04:26:23;;;;;;;2.47;2.27;;;16.70;99.90;;;;;;5007063;28;20202;-88
2023/07/27 04:28:48;;;;;;;2.97;2.67;;;16.30;99.90;;;;;;5026927;28;20669;-88
2023/07/27 04:31:14;;;;;;;3.00;2.80;;;16.70;99.90;;;;;;5028274;28;20178;-87
2023/07/27 04:33:39;;;;;;;6.13;2.60;;;16.30;99.90;;;;;;5027046;28;20694;-88
2023/07/27 04:36:05;;;;;;;5.53;2.33;;;16.80;99.90;;;;;;5011483;28;20382;-88
2023/07/27 04:38:31;;;;;;;2.70;2.50;;;16.80;99.90;;;;;;5019717;28;20216;-88
2023/07/27 04:40:56;;;;;;;5.93;2.40;;;16.40;99.90;;;;;;5016839;28;20229;-87
2023/07/27 04:43:22;;;;;;;2.43;2.27;;;16.60;99.90;;;;;;5015488;28;20182;-88
2023/07/27 04:45:47;;;;;;;3.20;2.80;;;16.50;99.90;;;;;;5018275;28;20677;-86
2023/07/27 04:48:13;;;;;;;2.93;2.60;;;16.90;99.90;;;;;;5031979;28;20241;-85
2023/07/27 04:50:38;;;;;;;3.03;2.73;;;16.50;99.90;;;;;;5015668;28;20186;-86
2023/07/27 04:53:04;;;;;;;3.03;2.83;;;17.10;99.90;;;;;;5014589;28;20193;-86
2023/07/27 04:55:29;;;;;;;6.50;2.80;;;16.70;99.90;;;;;;5015124;28;20209;-86
2023/07/27 04:57:55;;;;;;;4.70;2.70;;;17.20;99.90;;;;;;5017054;28;20186;-85
2023/07/27 05:00:20;;;;;;;3.20;2.90;;;16.80;99.90;;;;;;5016115;28;20186;-85
2023/07/27 05:02:46;;;;;;;3.07;2.80;;;16.80;99.90;;;;;;5008162;28;20194;-84
2023/07/27 05:05:12;;;;;;;4.90;3.07;;;16.70;99.90;;;;;;5018666;28;20941;-85
2023/07/27 05:07:37;;;;;;;4.83;3.00;;;16.80;99.90;;;;;;5019444;28;20225;-85
2023/07/27 05:10:03;;;;;;;3.63;2.30;;;17.30;99.90;;;;;;4993405;28;20766;-85
2023/07/27 05:12:31;;;;;;;3.67;2.70;;;17.00;99.90;;;;;;5018969;28;20247;-85
2023/07/27 05:14:58;;;;;;;2.60;2.40;;;17.40;99.90;;;;;;5013984;28;20559;-86
2023/07/27 05:17:23;;;;;;;5.82;2.97;;;17.50;99.90;;;;;;5011780;28;20198;-85
2023/07/27 05:19:49;;;;;;;2.83;2.63;;;17.30;99.90;;;;;;5016357;28;20190;-86
2023/07/27 05:22:14;;;;;;;3.43;2.40;;;16.90;99.90;;;;;;5012453;28;20186;-86
2023/07/27 05:24:40;;;;;;;3.30;2.20;;;17.40;99.90;;;;;;5018764;28;20189;-86
2023/07/27 05:27:05;;;;;;;3.10;2.80;;;17.10;99.90;;;;;;5021399;28;20221;-85
2023/07/27 05:29:31;;;;;;;2.63;2.43;;;17.60;99.90;;;;;;5015996;28;20178;-86
2023/07/27 05:31:57;;;;;;;2.60;2.40;;;17.40;99.90;;;;;;5017365;28;20186;-85
2023/07/27 05:34:23;;;;;;;2.55;2.20;;;17.30;99.90;;;;;;5009887;28;20581;-85
2023/07/27 05:36:48;;;;;;;5.90;2.13;;;17.60;99.90;;;;;;5039684;28;20186;-86
2023/07/27 05:39:14;;;;;;;6.27;2.37;;;17.30;99.90;;;;;;5037780;28;20254;-85
2023/07/27 05:41:39;;;;;;;3.13;2.37;;;17.60;99.90;;;;;;5031532;28;20198;-85
2023/07/27 05:44:05;;;;;;;3.07;2.50;;;17.50;99.90;;;;;;5020373;28;20209;-85
2023/07/27 05:46:30;;;;;;;2.33;2.20;;;17.90;99.90;;;;;;5012913;28;20309;-86
2023/07/27 05:48:56;;;;;;;2.30;2.07;;;17.60;99.90;;;;;;5008659;28;20289;-87
2023/07/27 05:51:21;;;;;;;2.60;2.40;;;17.60;99.90;;;;;;5033518;28;20175;-87
2023/07/27 05:53:47;;;;;;;2.13;1.93;;;18.10;99.90;;;;;;5013643;28;20178;-85
2023/07/27 05:56:13;;;;;;;3.03;2.83;;;18.10;99.90;;;;;;5005393;28;20256;-86
2023/07/27 05:58:38;;;;;;;3.97;2.67;;;18.20;99.90;;;;;;5006182;28;20185;-86
2023/07/27 06:01:04;;;;;;;2.73;2.53;;;18.30;99.90;;;;;;5014759;28;20201;-87
2023/07/27 06:03:31;;;;;;;2.27;2.07;;;18.10;99.90;;;;;;5013738;28;20183;-87
2023/07/27 06:05:57;;;;;;;2.67;2.47;;;18.50;99.90;;;;;;5005839;28;20547;-87
2023/07/27 06:08:23;;;;;;;2.65;2.45;;;17.80;99.90;;;;;;5012049;28;20272;-87
2023/07/27 06:10:48;;;;;;;2.97;2.70;;;18.20;99.90;;;;;;5012647;28;20186;-87
2023/07/27 06:13:14;;;;;;;2.40;2.20;;;18.30;99.90;;;;;;5012943;28;20650;-87
2023/07/27 06:15:49;;;;;;;3.63;2.50;;;18.00;99.90;;;;;;5010519;28;20182;-87
2023/07/27 06:18:15;;;;;;;2.78;2.40;;;17.90;99.90;;;;;;5012305;28;20326;-87
2023/07/27 06:20:41;;;;;;;2.10;1.90;;;18.20;99.90;;;;;;5013843;28;20256;-87
2023/07/27 06:23:06;;;;;;;2.65;2.45;;;18.30;99.90;;;;;;5016415;28;20276;-87
2023/07/27 06:25:32;;;;;;;2.60;2.40;;;18.40;99.90;;;;;;5012760;28;20226;-87
2023/07/27 06:27:57;;;;;;;3.50;2.17;;;18.40;99.90;;;;;;5012783;28;20214;-88
2023/07/27 06:30:23;;;;;;;3.60;2.30;;;18.90;99.90;;;;;;5020862;28;20175;-87
2023/07/27 06:32:49;;;;;;;3.23;2.27;;;18.90;99.40;;;;;;5017317;28;20170;-87
2023/07/27 06:35:14;;;;;;;2.40;2.20;;;19.30;99.20;;;;;;5019563;28;20602;-87
2023/07/27 06:37:40;;;;;;;3.40;2.40;;;19.40;99.00;;;;;;5009315;28;20224;-88
2023/07/27 06:40:06;;;;;;;2.53;2.33;;;19.50;99.20;;;;;;5015127;28;20611;-88
2023/07/27 06:42:32;;;;;;;4.35;2.20;;;18.70;98.80;;;;;;5013400;28;20671;-88
2023/07/27 06:44:58;;;;;;;2.42;2.00;;;19.60;99.20;;;;;;5014585;28;20190;-88
2023/07/27 06:47:24;;;;;;;3.70;3.03;;;19.10;98.50;;;;;;5017499;28;20225;-87
2023/07/27 06:49:50;;;;;;;3.67;2.63;;;19.50;98.50;;;;;;5036421;28;20194;-87
2023/07/27 06:52:15;;;;;;;2.47;2.00;;;19.40;98.20;;;;;;5013936;28;20189;-88
2023/07/27 06:54:41;;;;;;;3.43;2.27;;;19.80;98.10;;;;;;5032851;28;20186;-88
2023/07/27 06:57:09;;;;;;;3.77;2.10;;;20.00;98.20;;;;;;5011784;28;20226;-88
2023/07/27 06:59:36;;;;;;;2.92;2.40;;;20.00;98.00;;;;;;5011440;28;20229;-87
2023/07/27 07:02:01;;;;;;;2.70;2.40;;;20.10;97.70;;;;;;5030020;28;20191;-88
2023/07/27 07:04:29;;;;;;;4.30;2.10;;;19.60;97.40;;;;;;5014126;28;20182;-88
2023/07/27 07:06:55;;;;;;;3.17;2.97;;;20.10;97.80;;;;;;5019045;28;21783;-88
2023/07/27 07:09:21;;;;;;;2.60;2.30;;;19.70;97.60;;;;;;5018331;28;20291;-88
2023/07/27 07:11:48;;;;;;;3.30;2.40;;;19.80;97.70;;;;;;5034848;28;20182;-88
2023/07/27 07:14:13;;;;;;;2.58;2.30;;;19.70;97.70;;;;;;5015111;28;20541;-88
2023/07/27 07:16:39;;;;;;;2.50;2.30;;;19.80;97.60;;;;;;5012727;28;20209;-89
2023/07/27 07:19:05;;;;;;;2.67;2.27;;;19.30;97.50;;;;;;4999220;28;20665;-88
2023/07/27 07:21:30;;;;;;;2.53;2.33;;;19.90;97.50;;;;;;5016710;28;20194;-86
2023/07/27 07:23:57;;;;;;;2.57;2.10;;;19.80;97.60;;;;;;5017228;28;20299;-88
2023/07/27 07:26:24;;;;;;;2.58;2.03;;;20.10;97.80;;;;;;5029290;28;20201;-88
2023/07/27 07:28:49;;;;;;;3.92;2.47;;;19.70;97.40;;;;;;5014540;28;20186;-87
2023/07/27 07:31:15;;;;;;;3.30;2.50;;;20.00;97.80;;;;;;5019997;28;20178;-88
2023/07/27 07:33:41;;;;;;;3.20;2.10;;;19.50;97.60;;;;;;5031855;28;20200;-88
2023/07/27 07:36:07;;;;;;;2.47;2.27;;;19.70;98.00;;;;;;5013656;28;20868;-87
2023/07/27 07:38:32;;;;;;;2.57;2.13;;;19.70;98.00;;;;;;5013165;28;20218;-88
2023/07/27 07:40:58;;;;;;;2.50;2.30;;;19.50;97.80;;;;;;5030950;28;20438;-88
2023/07/27 07:43:23;;;;;;;2.80;2.60;;;20.30;98.10;;;;;;5010571;28;20216;-88
2023/07/27 07:45:49;;;;;;;2.77;2.57;;;19.60;97.70;;;;;;5013488;28;20890;-88
2023/07/27 07:48:14;;;;;;;3.00;2.53;;;20.00;97.80;;;;;;5017040;28;20229;-87
2023/07/27 07:50:40;;;;;;;3.43;2.70;;;19.50;97.50;;;;;;5036267;28;20170;-88
2023/07/27 07:53:06;;;;;;;4.13;2.20;;;19.70;97.70;;;;;;5037483;28;20208;-88
2023/07/27 07:55:36;;;;;;;2.40;2.20;;;20.10;97.90;;;;;;5027312;28;20197;-88
2023/07/27 07:58:01;;;;;;;3.78;2.60;;;20.10;97.90;;;;;;5012348;28;20190;-88
2023/07/27 08:00:27;;;;;;;2.70;2.50;;;19.80;97.90;;;;;;5013377;28;20718;-87
2023/07/27 08:02:53;;;;;;;2.60;2.40;;;20.00;98.00;;;;;;5017659;28;20440;-88
2023/07/27 08:05:18;;;;;;;2.63;2.43;;;19.50;97.60;;;;;;5014345;28;20240;-88
2023/07/27 08:07:44;;;;;;;4.90;2.60;;;19.70;97.50;;;;;;5015575;28;20209;-88
2023/07/27 08:10:10;;;;;;;2.50;2.10;;;19.50;97.40;;;;;;5020178;28;20186;-88
2023/07/27 08:12:36;;;;;;;3.38;2.55;;;19.50;97.50;;;;;;5017032;28;20189;-87
2023/07/27 08:15:02;;;;;;;3.80;2.23;;;19.90;97.70;;;;;;5028008;28;20208;-88
2023/07/27 08:17:29;;;;;;;2.23;2.03;;;19.70;97.40;;;;;;5034998;28;20196;-87
2023/07/27 08:19:55;;;;;;;3.35;2.25;;;19.90;97.40;;;;;;5014635;28;20202;-88
2023/07/27 08:22:20;;;;;;;2.40;2.20;;;19.80;97.20;;;;;;5014939;28;20174;-88
2023/07/27 08:24:46;;;;;;;2.80;2.60;;;20.10;97.00;;;;;;5016938;28;20248;-88
2023/07/27 08:27:11;;;;;;;1.80;1.70;;;20.40;97.20;;;;;;5016384;28;20252;-88
2023/07/27 08:29:37;;;;;;;2.53;2.33;;;20.30;96.90;;;;;;5009956;28;20178;-88
2023/07/27 08:32:05;;;;;;;2.80;2.20;;;20.00;96.70;;;;;;5020252;28;20275;-88
2023/07/27 08:34:31;;;;;;;2.50;2.30;;;20.00;96.60;;;;;;5016292;28;20226;-88
2023/07/27 08:36:57;;;;;;;2.60;2.40;;;20.40;96.70;;;;;;5015291;28;20209;-88
2023/07/27 08:39:22;;;;;;;2.33;2.13;;;20.20;96.40;;;;;;5014488;28;20619;-88
2023/07/27 08:41:48;;;;;;;2.50;2.30;;;20.40;96.50;;;;;;5019764;28;20213;-88
2023/07/27 08:44:14;;;;;;;2.78;2.58;;;21.50;96.90;;;;;;4994088;28;20195;-88
2023/07/27 08:46:41;;;;;;;2.57;2.37;;;20.50;96.70;;;;;;5014612;28;20233;-88
2023/07/27 08:49:13;;;;;;;3.90;2.88;;;20.20;96.10;;;;;;5017927;28;20437;-88
2023/07/27 08:51:43;;;;;;;3.45;2.65;;;20.60;96.40;;;;;;5024657;28;20204;-88
2023/07/27 08:54:09;;;;;;;2.50;2.30;;;22.00;96.60;;;;;;5016400;28;20277;-88
2023/07/27 08:56:34;;;;;;;2.43;2.23;;;21.10;96.40;;;;;;5014708;28;20222;-88
2023/07/27 08:59:00;;;;;;;2.87;2.53;;;20.20;96.00;;;;;;5012609;28;20206;-88
2023/07/27 09:01:26;;;;;;;2.50;2.30;;;22.30;96.90;;;;;;5015026;28;20224;-88
2023/07/27 09:03:54;;;;;;;2.57;2.03;;;21.00;96.50;;;;;;4998999;28;20452;-88
2023/07/27 09:06:40;;;;;;;4.60;2.53;;;21.90;96.60;;;;;;5013595;28;20201;-88
2023/07/27 09:09:21;;;;;;;2.47;2.28;;;20.40;96.00;;;;;;5010602;28;20530;-88
2023/07/27 09:11:47;;;;;;;2.15;2.00;;;20.40;95.40;;;;;;5008809;28;20178;-88
2023/07/27 09:14:20;;;;;;;4.83;2.30;;;21.10;95.70;;;;;;5026001;28;20261;-88
2023/07/27 09:16:47;;;;;;;6.07;2.25;;;20.40;95.50;;;;;;5009104;28;20581;-89
2023/07/27 09:19:15;;;;;;;2.75;2.40;;;21.80;96.10;;;;;;5042470;28;20227;-88
2023/07/27 09:21:44;;;;;;;2.60;2.40;;;20.90;95.60;;;;;;5013242;28;20178;-88
2023/07/27 09:24:11;;;;;;;6.45;2.70;;;20.40;95.40;;;;;;5019760;28;20189;-88
2023/07/27 09:26:47;;;;;;;3.25;2.45;;;20.60;95.80;;;;;;5013384;28;20203;-88
2023/07/27 09:29:15;;;;;;;2.78;2.55;;;20.30;95.60;;;;;;5012836;28;20186;-88
2023/07/27 09:31:48;;;;;;;2.47;2.28;;;20.20;96.00;;;;;;5015338;28;20281;-88
2023/07/27 09:34:15;;;;;;;2.40;2.20;;;20.60;96.70;;;;;;5018862;28;20235;-88
2023/07/27 09:36:41;;;;;;;2.53;2.30;;;20.10;97.20;;;;;;5014866;28;20226;-88
2023/07/27 09:39:08;;;;;;;4.93;2.83;;;20.60;97.70;;;;;;5013652;28;20662;-88
2023/07/27 09:41:34;;;;;;;2.92;2.70;;;20.30;98.00;;;;;;5014783;28;20263;-88
2023/07/27 09:44:00;;;;;;;2.63;2.30;;;20.10;98.60;;;;;;5015253;28;20623;-88
2023/07/27 09:46:25;;;;;;;3.00;2.53;;;19.90;98.30;;;;;;5018914;28;20845;-89
2023/07/27 09:48:52;;;;;;;3.63;2.50;;;20.40;98.90;;;;;;5019258;28;20497;-89
2023/07/27 09:51:17;;;;;;;3.63;3.33;;;19.80;98.80;;;;;;5011715;28;20254;-88
2023/07/27 09:53:44;;;;;;;3.77;3.13;;;20.90;99.60;;;;;;5018147;28;20182;-88
2023/07/27 09:56:13;;;;;;;3.95;2.95;;;20.30;99.20;;;;;;5036252;28;20459;-89
2023/07/27 09:58:40;;;;;;;3.70;3.40;;;19.90;99.20;;;;;;5012086;28;20676;-88
2023/07/27 10:01:06;;;;;;;6.43;2.65;;;19.50;99.10;;;;;;5021533;28;20190;-88
2023/07/27 10:03:32;;;;;;;2.80;2.53;;;19.90;99.10;;;;;;5015537;28;20186;-88
2023/07/27 10:05:59;;;;;;;4.05;2.58;;;20.40;99.30;;;;;;5019904;28;20210;-88
2023/07/27 10:08:26;;;;;;;3.60;2.50;;;20.40;99.00;;;;;;5010059;28;20218;-88
2023/07/27 10:10:53;;;;;;;2.95;2.70;;;20.30;99.00;;;;;;5027816;28;20199;-88
2023/07/27 10:13:25;;;;;;;3.50;2.42;;;20.40;98.80;;;;;;5057120;28;20173;-88
2023/07/27 10:15:52;;;;;;;3.30;2.42;;;20.50;98.90;;;;;;5053172;28;20191;-89
2023/07/27 10:18:24;;;;;;;2.60;2.40;;;20.40;98.70;;;;;;5055448;28;20182;-88
2023/07/27 10:20:50;;;;;;;3.30;3.00;;;20.40;98.70;;;;;;5036464;28;20189;-88
2023/07/27 10:23:18;;;;;;;3.97;2.65;;;20.00;98.50;;;;;;5037599;28;20204;-88
2023/07/27 10:25:56;;;;;;;2.90;2.70;;;20.00;98.90;;;;;;5036253;28;20206;-88
2023/07/27 10:28:43;;;;;;;2.50;2.30;;;20.50;98.40;;;;;;5071368;28;20198;-88
2023/07/27 10:31:22;;;;;;;2.55;2.35;;;20.60;98.20;;;;;;5036192;28;20198;-88
2023/07/27 10:34:11;;;;;;;3.95;3.08;;;20.70;98.00;;;;;;5025269;28;20190;-88
2023/07/27 10:36:57;;;;;;;2.55;2.35;;;20.60;97.70;;;;;;5032007;28;20230;-88
2023/07/27 10:39:50;;;;;;;2.45;2.22;;;21.30;97.30;;;;;;5025862;28;20182;-88
2023/07/27 10:42:26;;;;;;;3.47;2.28;;;21.50;97.10;;;;;;5018366;28;20194;-88
2023/07/27 10:44:52;;;;;;;2.22;2.13;;;21.60;96.80;;;;;;5015909;28;20677;-89
2023/07/27 10:47:26;;;;;;;2.63;2.42;;;21.40;96.30;;;;;;5018455;28;20263;-88
2023/07/27 10:49:54;;;;;;;2.60;2.40;;;21.60;96.10;;;;;;5036810;28;20193;-88
2023/07/27 10:52:25;;;;;;;2.80;2.60;;;21.50;95.90;;;;;;4998006;28;20186;-88
2023/07/27 10:54:52;;;;;;;2.60;2.40;;;21.90;95.50;;;;;;5031243;28;20173;-88
2023/07/27 10:57:19;;;;;;;2.72;2.53;;;21.60;95.40;;;;;;5023439;28;20229;-88
2023/07/27 10:59:47;;;;;;;2.10;2.00;;;21.60;95.00;;;;;;5014880;28;20193;-89
2023/07/27 11:02:22;;;;;;;3.30;2.20;;;21.70;95.30;;;;;;5013879;28;20186;-88
2023/07/27 11:04:59;;;;;;;2.45;2.25;;;21.60;95.40;;;;;;5015527;28;20185;-88
2023/07/27 11:07:36;;;;;;;3.83;2.20;;;21.50;95.20;;;;;;4996743;28;20670;-89
2023/07/27 11:10:03;;;;;;;3.50;2.40;;;21.60;95.30;;;;;;5024978;28;20204;-88
2023/07/27 11:12:29;;;;;;;2.67;2.47;;;21.80;95.30;;;;;;5036847;28;20480;-88
2023/07/27 11:14:55;;;;;;;2.00;1.90;;;22.90;95.70;;;;;;5030284;28;20178;-88
2023/07/27 11:17:25;;;;;;;2.63;2.42;;;22.70;95.40;;;;;;5014612;28;20264;-88
2023/07/27 11:19:51;;;;;;;3.28;2.20;;;22.20;95.10;;;;;;5018455;28;20182;-87
2023/07/27 11:22:17;;;;;;;3.55;2.00;;;22.30;94.90;;;;;;5019110;28;20281;-87
2023/07/27 11:24:43;;;;;;;3.37;2.60;;;22.70;94.30;;;;;;5033611;28;20198;-87
2023/07/27 11:27:10;;;;;;;5.13;2.10;;;23.30;94.50;;;;;;5015958;28;20221;-86
2023/07/27 11:29:45;;;;;;;3.22;2.78;;;22.50;94.00;;;;;;5010878;28;20186;-86
2023/07/27 11:32:10;;;;;;;2.00;1.80;;;22.30;94.20;;;;;;5011055;28;20186;-86
2023/07/27 11:34:37;;;;;;;3.43;2.90;;;23.00;94.50;;;;;;5015326;28;20189;-86
2023/07/27 11:37:02;;;;;;;3.33;2.07;;;22.50;94.50;;;;;;5011733;28;20224;-86
2023/07/27 11:39:29;;;;;;;2.57;2.37;;;22.40;94.40;;;;;;5010853;28;20440;-86
2023/07/27 11:41:55;;;;;;;2.10;2.00;;;22.80;94.50;;;;;;5010687;28;20495;-87
2023/07/27 11:44:23;;;;;;;1.87;1.77;;;22.90;94.40;;;;;;5044418;28;20440;-87
2023/07/27 11:46:52;;;;;;;2.50;1.80;;;22.30;94.20;;;;;;5012388;28;20635;-87
2023/07/27 11:49:22;;;;;;;2.13;2.00;;;22.80;94.50;;;;;;5014396;28;20437;-87
2023/07/27 11:51:49;;;;;;;2.05;1.90;;;22.40;94.30;;;;;;5014376;28;20174;-87
2023/07/27 11:54:25;;;;;;;5.75;4.55;;;22.90;94.40;;;;;;5013953;28;20175;-87
2023/07/27 11:56:53;;;;;;;2.90;2.60;;;22.50;94.50;;;;;;5021830;28;20198;-87
2023/07/27 11:59:22;;;;;;;3.73;2.40;;;22.40;94.60;;;;;;5009608;28;20475;-87
2023/07/27 12:01:51;;;;;;;4.40;2.58;;;22.70;94.60;;;;;;5011540;28;20467;-87
2023/07/27 12:04:18;;;;;;;2.60;2.17;;;22.80;95.00;;;;;;5012779;28;20678;-87
2023/07/27 12:06:44;;;;;;;4.13;2.33;;;22.80;95.20;;;;;;5011168;28;20475;-87
2023/07/27 12:09:11;;;;;;;3.70;2.50;;;23.10;96.20;;;;;;5012111;28;20800;-86
2023/07/27 12:11:37;;;;;;;2.17;2.00;;;22.80;96.20;;;;;;5042110;28;20170;-87
2023/07/27 12:14:07;;;;;;;2.22;1.90;;;22.70;96.50;;;;;;5013780;28;20448;-87
2023/07/27 12:16:38;;;;;;;4.90;2.07;;;22.60;96.80;;;;;;5010068;28;20206;-87
2023/07/27 12:19:03;;;;;;;2.97;2.20;;;23.10;97.80;;;;;;5010282;28;20448;-87
2023/07/27 12:21:29;;;;;;;3.13;2.10;;;22.40;98.50;;;;;;5031714;28;20190;-87
2023/07/27 12:23:54;;;;;;;2.47;2.17;;;23.00;99.20;;;;;;5015515;28;20536;-87
2023/07/27 12:26:20;;;;;;;2.90;2.60;;;22.70;99.40;;;;;;5018600;28;20209;-87
2023/07/27 12:28:46;;;;;;;3.00;2.70;;;22.50;99.90;;;;;;5040056;28;20363;-86
2023/07/27 12:31:11;;;;;;;2.90;2.70;;;22.10;99.90;;;;;;5013058;28;20222;-86
2023/07/27 12:33:37;;;;;;;2.50;2.30;;;22.50;99.90;;;;;;5012604;28;20193;-87
2023/07/27 12:36:02;;;;;;;3.07;2.40;;;22.50;99.90;;;;;;5012808;28;20194;-87
2023/07/27 12:38:28;;;;;;;3.33;3.07;;;22.20;99.90;;;;;;5019820;28;20195;-87
2023/07/27 12:40:53;;;;;;;7.80;5.00;;;23.10;99.90;;;;;;5012221;28;20244;-87
2023/07/27 12:43:19;;;;;;;3.53;2.97;;;22.80;99.90;;;;;;5018441;28;20233;-87
2023/07/27 12:45:44;;;;;;;4.03;3.23;;;22.00;99.90;;;;;;5026664;28;20217;-87
2023/07/27 12:48:10;;;;;;;5.20;3.83;;;22.30;99.90;;;;;;5037542;28;20232;-87